sensor_id;sensor_type;location;lat;lon;timestamp;pressure;altitude;pressure_sealevel;temperature;humidity
49216;BME280;45943;53.148;8.204;2023-05-24T00:00:24;102269.09;;;14.39;100.00
49216;BME280;45943;53.148;8.204;2023-05-24T00:02:50;102267.88;;;14.43;100.00
49216;BME280;45943;53.148;8.204;2023-05-24T00:05:16;102260.56;;;14.45;100.00
49216;BME280;45943;53.148;8.204;2023-05-24T00:07:43;102258.75;;;14.46;100.00
49216;BME280;45943;53.148;8.204;2023-05-24T00:10:09;102267.47;;;14.49;100.00
49216;BME280;45943;53.148;8.204;2023-05-24T00:12:35;102265.63;;;14.50;100.00
49216;BME280;45943;53.148;8.204;2023-05-24T00:15:01;102262.47;;;14.43;100.00
49216;BME280;45943;53.148;8.204;2023-05-24T00:17:28;102265.41;;;14.40;100.00
49216;BME280;45943;53.148;8.204;2023-05-24T00:19:55;102262.19;;;14.35;100.00
49216;BME280;45943;53.148;8.204;2023-05-24T00:22:20;102260.81;;;14.29;100.00
49216;BME280;45943;53.148;8.204;2023-05-24T00:24:47;102262.78;;;14.27;100.00
49216;BME280;45943;53.148;8.204;2023-05-24T00:27:13;102257.38;;;14.27;100.00
49216;BME280;45943;53.148;8.204;2023-05-24T00:29:40;102254.19;;;14.33;100.00
49216;BME280;45943;53.148;8.204;2023-05-24T00:32:06;102255.19;;;14.32;100.00
49216;BME280;45943;53.148;8.204;2023-05-24T00:34:32;102250.63;;;14.33;100.00
49216;BME280;45943;53.148;8.204;2023-05-24T00:36:58;102251.38;;;14.35;100.00
49216;BME280;45943;53.148;8.204;2023-05-24T00:39:25;102245.97;;;14.35;100.00
49216;BME280;45943;53.148;8.204;2023-05-24T00:41:51;102244.91;;;14.38;100.00
49216;BME280;45943;53.148;8.204;2023-05-24T00:44:17;102242.22;;;14.38;100.00
49216;BME280;45943;53.148;8.204;2023-05-24T00:46:43;102238.88;;;14.34;100.00
49216;BME280;45943;53.148;8.204;2023-05-24T00:49:09;102231.41;;;14.38;100.00
49216;BME280;45943;53.148;8.204;2023-05-24T00:51:36;102241.13;;;14.40;100.00
49216;BME280;45943;53.148;8.204;2023-05-24T00:54:03;102241.34;;;14.37;100.00
49216;BME280;45943;53.148;8.204;2023-05-24T00:56:29;102248.69;;;14.35;100.00
49216;BME280;45943;53.148;8.204;2023-05-24T00:58:56;102238.25;;;14.30;100.00
49216;BME280;45943;53.148;8.204;2023-05-24T01:01:22;102236.06;;;14.35;100.00
49216;BME280;45943;53.148;8.204;2023-05-24T01:03:55;102245.97;;;14.35;100.00
49216;BME280;45943;53.148;8.204;2023-05-24T01:06:21;102242.34;;;14.36;100.00
49216;BME280;45943;53.148;8.204;2023-05-24T01:17:13;102239.34;;;14.15;100.00
49216;BME280;45943;53.148;8.204;2023-05-24T01:19:50;102233.63;;;14.20;100.00
49216;BME280;45943;53.148;8.204;2023-05-24T01:22:27;102237.50;;;14.16;100.00
49216;BME280;45943;53.148;8.204;2023-05-24T01:27:32;102241.50;;;14.23;100.00
49216;BME280;45943;53.148;8.204;2023-05-24T01:30:01;102237.81;;;14.24;100.00
49216;BME280;45943;53.148;8.204;2023-05-24T01:32:28;102240.53;;;14.24;100.00
49216;BME280;45943;53.148;8.204;2023-05-24T01:34:55;102242.34;;;14.23;100.00
49216;BME280;45943;53.148;8.204;2023-05-24T01:37:21;102243.69;;;14.18;100.00
49216;BME280;45943;53.148;8.204;2023-05-24T01:39:47;102239.81;;;14.09;100.00
49216;BME280;45943;53.148;8.204;2023-05-24T01:50:32;102231.41;;;14.01;100.00
49216;BME280;45943;53.148;8.204;2023-05-24T01:53:05;102227.31;;;14.08;100.00
49216;BME280;45943;53.148;8.204;2023-05-24T01:55:33;102225.97;;;14.14;100.00
49216;BME280;45943;53.148;8.204;2023-05-24T01:58:02;102224.91;;;14.16;100.00
49216;BME280;45943;53.148;8.204;2023-05-24T02:00:30;102232.88;;;14.18;100.00
49216;BME280;45943;53.148;8.204;2023-05-24T02:02:59;102230.06;;;14.19;100.00
49216;BME280;45943;53.148;8.204;2023-05-24T02:05:26;102227.16;;;14.22;100.00
49216;BME280;45943;53.148;8.204;2023-05-24T02:07:52;102239.53;;;14.25;100.00
49216;BME280;45943;53.148;8.204;2023-05-24T02:10:18;102240.31;;;14.27;100.00
49216;BME280;45943;53.148;8.204;2023-05-24T02:12:44;102234.38;;;14.22;100.00
49216;BME280;45943;53.148;8.204;2023-05-24T02:15:10;102234.38;;;14.22;100.00
49216;BME280;45943;53.148;8.204;2023-05-24T02:17:39;102227.16;;;14.22;100.00
49216;BME280;45943;53.148;8.204;2023-05-24T02:20:07;102225.09;;;14.26;100.00
49216;BME280;45943;53.148;8.204;2023-05-24T02:22:33;102222.59;;;14.23;100.00
49216;BME280;45943;53.148;8.204;2023-05-24T02:25:00;102228.00;;;14.23;100.00
49216;BME280;45943;53.148;8.204;2023-05-24T02:27:26;102224.19;;;14.25;100.00
49216;BME280;45943;53.148;8.204;2023-05-24T02:29:52;102224.13;;;14.27;100.00
49216;BME280;45943;53.148;8.204;2023-05-24T02:32:17;102232.22;;;14.27;100.00
49216;BME280;45943;53.148;8.204;2023-05-24T02:34:43;102232.31;;;14.25;100.00
49216;BME280;45943;53.148;8.204;2023-05-24T02:37:10;102223.34;;;14.25;100.00
49216;BME280;45943;53.148;8.204;2023-05-24T02:39:39;102222.09;;;14.18;100.00
49216;BME280;45943;53.148;8.204;2023-05-24T02:42:06;102223.28;;;14.14;100.00
49216;BME280;45943;53.148;8.204;2023-05-24T02:44:33;102219.84;;;14.12;100.00
49216;BME280;45943;53.148;8.204;2023-05-24T02:46:59;102215.94;;;14.16;100.00
49216;BME280;45943;53.148;8.204;2023-05-24T02:49:25;102212.47;;;14.14;100.00
49216;BME280;45943;53.148;8.204;2023-05-24T02:51:51;102211.00;;;14.10;100.00
49216;BME280;45943;53.148;8.204;2023-05-24T02:54:17;102207.44;;;14.09;100.00
49216;BME280;45943;53.148;8.204;2023-05-24T02:56:43;102214.31;;;14.13;100.00
49216;BME280;45943;53.148;8.204;2023-05-24T02:59:09;102204.97;;;14.06;100.00
49216;BME280;45943;53.148;8.204;2023-05-24T03:01:35;102211.56;;;14.02;100.00
49216;BME280;45943;53.148;8.204;2023-05-24T03:04:01;102206.03;;;14.03;100.00
49216;BME280;45943;53.148;8.204;2023-05-24T03:06:27;102202.91;;;14.10;100.00
49216;BME280;45943;53.148;8.204;2023-05-24T03:08:53;102206.09;;;14.15;100.00
49216;BME280;45943;53.148;8.204;2023-05-24T03:11:19;102202.56;;;14.14;100.00
49216;BME280;45943;53.148;8.204;2023-05-24T03:13:48;102203.53;;;14.13;100.00
49216;BME280;45943;53.148;8.204;2023-05-24T03:16:14;102189.72;;;14.18;100.00
49216;BME280;45943;53.148;8.204;2023-05-24T03:18:41;102189.06;;;14.14;100.00
49216;BME280;45943;53.148;8.204;2023-05-24T03:21:07;102199.97;;;14.13;100.00
49216;BME280;45943;53.148;8.204;2023-05-24T03:23:33;102197.28;;;14.13;100.00
49216;BME280;45943;53.148;8.204;2023-05-24T03:25:59;102194.56;;;14.13;100.00
49216;BME280;45943;53.148;8.204;2023-05-24T03:28:25;102199.84;;;14.14;100.00
49216;BME280;45943;53.148;8.204;2023-05-24T03:30:52;102193.16;;;14.20;100.00
49216;BME280;45943;53.148;8.204;2023-05-24T03:33:18;102191.06;;;14.23;100.00
49216;BME280;45943;53.148;8.204;2023-05-24T03:35:44;102192.06;;;14.22;100.00
49216;BME280;45943;53.148;8.204;2023-05-24T03:38:10;102199.06;;;14.25;100.00
49216;BME280;45943;53.148;8.204;2023-05-24T03:40:35;102202.84;;;14.22;100.00
49216;BME280;45943;53.148;8.204;2023-05-24T03:43:03;102197.44;;;14.22;100.00
49216;BME280;45943;53.148;8.204;2023-05-24T03:45:29;102195.28;;;14.27;100.00
49216;BME280;45943;53.148;8.204;2023-05-24T03:47:54;102196.88;;;14.30;100.00
49216;BME280;45943;53.148;8.204;2023-05-24T03:50:20;102200.22;;;14.33;100.00
49216;BME280;45943;53.148;8.204;2023-05-24T03:52:46;102191.13;;;14.34;100.00
49216;BME280;45943;53.148;8.204;2023-05-24T03:55:12;102200.97;;;14.35;100.00
49216;BME280;45943;53.148;8.204;2023-05-24T03:57:39;102202.06;;;14.33;100.00
49216;BME280;45943;53.148;8.204;2023-05-24T04:00:07;102206.72;;;14.31;100.00
49216;BME280;45943;53.148;8.204;2023-05-24T04:02:34;102204.38;;;14.26;100.00
49216;BME280;45943;53.148;8.204;2023-05-24T04:05:03;102206.22;;;14.26;100.00
49216;BME280;45943;53.148;8.204;2023-05-24T04:07:30;102202.09;;;14.20;100.00
49216;BME280;45943;53.148;8.204;2023-05-24T04:09:58;102198.56;;;14.20;100.00
49216;BME280;45943;53.148;8.204;2023-05-24T04:12:24;102205.91;;;14.18;100.00
49216;BME280;45943;53.148;8.204;2023-05-24T04:14:50;102209.97;;;14.23;100.00
49216;BME280;45943;53.148;8.204;2023-05-24T04:17:16;102207.06;;;14.26;100.00
49216;BME280;45943;53.148;8.204;2023-05-24T04:19:42;102209.22;;;14.21;100.00
49216;BME280;45943;53.148;8.204;2023-05-24T04:22:08;102202.84;;;14.22;100.00
49216;BME280;45943;53.148;8.204;2023-05-24T04:24:35;102205.00;;;14.30;100.00
49216;BME280;45943;53.148;8.204;2023-05-24T04:27:01;102208.44;;;14.32;100.00
49216;BME280;45943;53.148;8.204;2023-05-24T04:29:27;102195.59;;;14.35;100.00
49216;BME280;45943;53.148;8.204;2023-05-24T04:31:53;102196.44;;;14.36;100.00
49216;BME280;45943;53.148;8.204;2023-05-24T04:34:19;102209.94;;;14.36;100.00
49216;BME280;45943;53.148;8.204;2023-05-24T04:36:46;102194.97;;;14.43;100.00
49216;BME280;45943;53.148;8.204;2023-05-24T04:39:14;102198.44;;;14.45;100.00
49216;BME280;45943;53.148;8.204;2023-05-24T04:41:40;102207.31;;;14.47;100.00
49216;BME280;45943;53.148;8.204;2023-05-24T04:44:06;102207.50;;;14.57;100.00
49216;BME280;45943;53.148;8.204;2023-05-24T04:46:32;102207.00;;;14.63;100.00
49216;BME280;45943;53.148;8.204;2023-05-24T04:49:00;102213.78;;;14.69;100.00
49216;BME280;45943;53.148;8.204;2023-05-24T04:51:26;102214.22;;;14.75;100.00
49216;BME280;45943;53.148;8.204;2023-05-24T04:53:52;102219.19;;;14.69;100.00
49216;BME280;45943;53.148;8.204;2023-05-24T04:56:19;102228.63;;;14.63;100.00
49216;BME280;45943;53.148;8.204;2023-05-24T04:58:45;102227.63;;;14.64;100.00
49216;BME280;45943;53.148;8.204;2023-05-24T05:01:11;102222.34;;;14.62;100.00
49216;BME280;45943;53.148;8.204;2023-05-24T05:03:37;102225.78;;;14.64;100.00
49216;BME280;45943;53.148;8.204;2023-05-24T05:06:03;102232.81;;;14.67;100.00
49216;BME280;45943;53.148;8.204;2023-05-24T05:08:29;102224.34;;;14.72;100.00
49216;BME280;45943;53.148;8.204;2023-05-24T05:10:55;102224.34;;;14.72;100.00
49216;BME280;45943;53.148;8.204;2023-05-24T05:13:22;102223.91;;;14.78;100.00
49216;BME280;45943;53.148;8.204;2023-05-24T05:15:48;102229.06;;;14.81;100.00
49216;BME280;45943;53.148;8.204;2023-05-24T05:18:14;102232.38;;;14.84;100.00
49216;BME280;45943;53.148;8.204;2023-05-24T05:20:40;102233.03;;;14.88;100.00
49216;BME280;45943;53.148;8.204;2023-05-24T05:23:06;102239.28;;;14.88;100.00
49216;BME280;45943;53.148;8.204;2023-05-24T05:25:33;102240.44;;;14.97;100.00
49216;BME280;45943;53.148;8.204;2023-05-24T05:28:00;102236.16;;;15.06;100.00
49216;BME280;45943;53.148;8.204;2023-05-24T05:30:26;102237.50;;;15.11;100.00
49216;BME280;45943;53.148;8.204;2023-05-24T05:32:52;102233.81;;;15.12;100.00
49216;BME280;45943;53.148;8.204;2023-05-24T05:35:18;102235.91;;;15.09;100.00
49216;BME280;45943;53.148;8.204;2023-05-24T05:37:44;102238.50;;;15.10;100.00
49216;BME280;45943;53.148;8.204;2023-05-24T05:40:10;102238.75;;;15.18;100.00
49216;BME280;45943;53.148;8.204;2023-05-24T05:42:36;102249.44;;;15.20;100.00
49216;BME280;45943;53.148;8.204;2023-05-24T05:45:03;102249.19;;;15.23;100.00
49216;BME280;45943;53.148;8.204;2023-05-24T05:47:29;102236.34;;;15.27;100.00
49216;BME280;45943;53.148;8.204;2023-05-24T05:49:55;102235.34;;;15.28;100.00
49216;BME280;45943;53.148;8.204;2023-05-24T05:52:21;102231.91;;;15.26;100.00
49216;BME280;45943;53.148;8.204;2023-05-24T05:54:47;102232.25;;;15.21;100.00
49216;BME280;45943;53.148;8.204;2023-05-24T05:57:13;102233.63;;;15.27;100.00
49216;BME280;45943;53.148;8.204;2023-05-24T05:59:40;102232.38;;;15.31;100.00
49216;BME280;45943;53.148;8.204;2023-05-24T06:02:06;102237.53;;;15.34;100.00
49216;BME280;45943;53.148;8.204;2023-05-24T06:04:33;102240.63;;;15.29;100.00
49216;BME280;45943;53.148;8.204;2023-05-24T06:06:59;102240.16;;;15.35;100.00
49216;BME280;45943;53.148;8.204;2023-05-24T06:09:25;102246.31;;;15.37;100.00
49216;BME280;45943;53.148;8.204;2023-05-24T06:11:51;102243.00;;;15.45;100.00
49216;BME280;45943;53.148;8.204;2023-05-24T06:14:17;102244.94;;;15.43;100.00
49216;BME280;45943;53.148;8.204;2023-05-24T06:16:44;102253.06;;;15.43;100.00
49216;BME280;45943;53.148;8.204;2023-05-24T06:19:10;102251.47;;;15.40;100.00
49216;BME280;45943;53.148;8.204;2023-05-24T06:21:37;102254.03;;;15.42;100.00
49216;BME280;45943;53.148;8.204;2023-05-24T06:24:05;102254.03;;;15.42;100.00
49216;BME280;45943;53.148;8.204;2023-05-24T06:26:35;102257.38;;;15.45;100.00
49216;BME280;45943;53.148;8.204;2023-05-24T06:29:01;102257.00;;;15.50;100.00
49216;BME280;45943;53.148;8.204;2023-05-24T06:31:27;102264.88;;;15.53;100.00
49216;BME280;45943;53.148;8.204;2023-05-24T06:33:53;102259.25;;;15.56;100.00
49216;BME280;45943;53.148;8.204;2023-05-24T06:36:19;102264.94;;;15.64;100.00
49216;BME280;45943;53.148;8.204;2023-05-24T06:38:45;102256.19;;;15.72;100.00
49216;BME280;45943;53.148;8.204;2023-05-24T06:41:11;102259.16;;;15.69;100.00
49216;BME280;45943;53.148;8.204;2023-05-24T06:43:37;102258.66;;;15.64;100.00
49216;BME280;45943;53.148;8.204;2023-05-24T06:46:05;102254.34;;;15.61;100.00
49216;BME280;45943;53.148;8.204;2023-05-24T06:48:31;102252.41;;;15.63;100.00
49216;BME280;45943;53.148;8.204;2023-05-24T06:50:57;102248.84;;;15.74;100.00
49216;BME280;45943;53.148;8.204;2023-05-24T06:53:23;102246.97;;;15.86;100.00
49216;BME280;45943;53.148;8.204;2023-05-24T06:55:49;102249.44;;;15.89;100.00
49216;BME280;45943;53.148;8.204;2023-05-24T06:58:15;102250.16;;;15.91;100.00
49216;BME280;45943;53.148;8.204;2023-05-24T07:00:41;102251.41;;;15.87;100.00
49216;BME280;45943;53.148;8.204;2023-05-24T07:03:08;102260.00;;;15.92;100.00
49216;BME280;45943;53.148;8.204;2023-05-24T07:05:34;102264.06;;;15.97;100.00
49216;BME280;45943;53.148;8.204;2023-05-24T07:08:00;102264.44;;;16.04;100.00
49216;BME280;45943;53.148;8.204;2023-05-24T07:10:26;102273.16;;;16.08;100.00
49216;BME280;45943;53.148;8.204;2023-05-24T07:12:52;102275.28;;;16.04;100.00
49216;BME280;45943;53.148;8.204;2023-05-24T07:15:18;102284.47;;;16.01;100.00
49216;BME280;45943;53.148;8.204;2023-05-24T07:17:44;102284.38;;;16.03;100.00
49216;BME280;45943;53.148;8.204;2023-05-24T07:20:10;102289.53;;;16.06;100.00
49216;BME280;45943;53.148;8.204;2023-05-24T07:22:38;102291.84;;;16.11;100.00
49216;BME280;45943;53.148;8.204;2023-05-24T07:25:05;102290.63;;;16.26;100.00
49216;BME280;45943;53.148;8.204;2023-05-24T07:27:31;102288.53;;;16.29;100.00
49216;BME280;45943;53.148;8.204;2023-05-24T07:29:57;102294.69;;;16.20;100.00
49216;BME280;45943;53.148;8.204;2023-05-24T07:32:23;102295.06;;;16.16;100.00
49216;BME280;45943;53.148;8.204;2023-05-24T07:34:49;102294.56;;;16.22;100.00
49216;BME280;45943;53.148;8.204;2023-05-24T07:37:15;102291.22;;;16.29;100.00
49216;BME280;45943;53.148;8.204;2023-05-24T07:39:42;102286.53;;;16.31;100.00
49216;BME280;45943;53.148;8.204;2023-05-24T07:42:09;102291.22;;;16.29;100.00
49216;BME280;45943;53.148;8.204;2023-05-24T07:44:35;102288.06;;;16.24;100.00
49216;BME280;45943;53.148;8.204;2023-05-24T07:47:01;102291.00;;;16.21;100.00
49216;BME280;45943;53.148;8.204;2023-05-24T07:49:27;102300.97;;;16.21;100.00
49216;BME280;45943;53.148;8.204;2023-05-24T07:51:53;102296.31;;;16.23;100.00
49216;BME280;45943;53.148;8.204;2023-05-24T07:54:22;102302.91;;;16.30;100.00
49216;BME280;45943;53.148;8.204;2023-05-24T07:56:48;102315.47;;;16.31;100.00
49216;BME280;45943;53.148;8.204;2023-05-24T07:59:14;102299.50;;;15.94;100.00
49216;BME280;45943;53.148;8.204;2023-05-24T08:01:41;102305.16;;;16.02;100.00
49216;BME280;45943;53.148;8.204;2023-05-24T08:04:07;102300.22;;;16.19;100.00
49216;BME280;45943;53.148;8.204;2023-05-24T08:06:34;102295.19;;;16.25;100.00
49216;BME280;45943;53.148;8.204;2023-05-24T08:09:01;102296.78;;;16.28;100.00
49216;BME280;45943;53.148;8.204;2023-05-24T08:11:28;102298.88;;;16.35;100.00
49216;BME280;45943;53.148;8.204;2023-05-24T08:13:55;102303.75;;;16.42;100.00
49216;BME280;45943;53.148;8.204;2023-05-24T08:16:21;102307.59;;;16.39;100.00
49216;BME280;45943;53.148;8.204;2023-05-24T08:18:47;102311.16;;;16.40;100.00
49216;BME280;45943;53.148;8.204;2023-05-24T08:21:13;102307.22;;;16.44;100.00
49216;BME280;45943;53.148;8.204;2023-05-24T08:23:39;102313.09;;;16.49;100.00
49216;BME280;45943;53.148;8.204;2023-05-24T08:26:05;102306.47;;;16.53;100.00
49216;BME280;45943;53.148;8.204;2023-05-24T08:28:31;102302.25;;;16.60;100.00
49216;BME280;45943;53.148;8.204;2023-05-24T08:30:57;102299.91;;;16.67;100.00
49216;BME280;45943;53.148;8.204;2023-05-24T08:33:24;102297.59;;;16.73;100.00
49216;BME280;45943;53.148;8.204;2023-05-24T08:35:50;102303.09;;;16.83;100.00
49216;BME280;45943;53.148;8.204;2023-05-24T08:38:16;102305.41;;;16.87;100.00
49216;BME280;45943;53.148;8.204;2023-05-24T08:40:43;102315.38;;;16.87;100.00
49216;BME280;45943;53.148;8.204;2023-05-24T08:43:09;102313.66;;;16.86;100.00
49216;BME280;45943;53.148;8.204;2023-05-24T08:45:38;102314.47;;;16.98;100.00
49216;BME280;45943;53.148;8.204;2023-05-24T08:48:04;102324.09;;;17.02;100.00
49216;BME280;45943;53.148;8.204;2023-05-24T08:50:31;102336.66;;;17.03;100.00
49216;BME280;45943;53.148;8.204;2023-05-24T08:52:58;102325.94;;;17.01;100.00
49216;BME280;45943;53.148;8.204;2023-05-24T08:55:26;102337.16;;;16.97;100.00
49216;BME280;45943;53.148;8.204;2023-05-24T08:57:54;102330.03;;;16.96;100.00
49216;BME280;45943;53.148;8.204;2023-05-24T09:00:21;102327.56;;;16.92;100.00
49216;BME280;45943;53.148;8.204;2023-05-24T09:02:47;102331.00;;;16.95;100.00
49216;BME280;45943;53.148;8.204;2023-05-24T09:05:14;102336.31;;;16.96;100.00
49216;BME280;45943;53.148;8.204;2023-05-24T09:07:43;102341.72;;;16.96;100.00
49216;BME280;45943;53.148;8.204;2023-05-24T09:10:10;102338.03;;;16.97;100.00
49216;BME280;45943;53.148;8.204;2023-05-24T09:12:36;102349.00;;;16.96;100.00
49216;BME280;45943;53.148;8.204;2023-05-24T09:15:05;102346.75;;;17.01;100.00
49216;BME280;45943;53.148;8.204;2023-05-24T09:17:35;102345.25;;;17.08;100.00
49216;BME280;45943;53.148;8.204;2023-05-24T09:20:03;102342.41;;;17.09;100.00
49216;BME280;45943;53.148;8.204;2023-05-24T09:22:31;102342.81;;;17.05;100.00
49216;BME280;45943;53.148;8.204;2023-05-24T09:24:59;102340.38;;;17.02;100.00
49216;BME280;45943;53.148;8.204;2023-05-24T09:27:26;102343.25;;;17.10;100.00
49216;BME280;45943;53.148;8.204;2023-05-24T09:29:52;102342.50;;;17.19;100.00
49216;BME280;45943;53.148;8.204;2023-05-24T09:32:21;102345.81;;;17.23;100.00
49216;BME280;45943;53.148;8.204;2023-05-24T09:34:51;102351.97;;;17.25;100.00
49216;BME280;45943;53.148;8.204;2023-05-24T09:37:19;102359.84;;;17.28;100.00
49216;BME280;45943;53.148;8.204;2023-05-24T09:39:47;102357.53;;;17.23;100.00
49216;BME280;45943;53.148;8.204;2023-05-24T09:42:18;102353.19;;;17.20;100.00
49216;BME280;45943;53.148;8.204;2023-05-24T09:47:28;102347.91;;;17.19;100.00
49216;BME280;45943;53.148;8.204;2023-05-24T09:49:55;102354.19;;;17.19;100.00
49216;BME280;45943;53.148;8.204;2023-05-24T09:52:22;102352.81;;;17.25;100.00
49216;BME280;45943;53.148;8.204;2023-05-24T09:54:48;102352.41;;;17.30;100.00
49216;BME280;45943;53.148;8.204;2023-05-24T09:57:14;102352.19;;;17.33;100.00
49216;BME280;45943;53.148;8.204;2023-05-24T09:59:41;102350.13;;;17.25;100.00
49216;BME280;45943;53.148;8.204;2023-05-24T10:02:09;102354.94;;;17.22;100.00
49216;BME280;45943;53.148;8.204;2023-05-24T10:04:36;102344.69;;;17.25;100.00
49216;BME280;45943;53.148;8.204;2023-05-24T10:07:08;102348.47;;;17.34;100.00
49216;BME280;45943;53.148;8.204;2023-05-24T10:09:36;102343.72;;;17.47;100.00
49216;BME280;45943;53.148;8.204;2023-05-24T10:12:03;102349.19;;;17.57;100.00
49216;BME280;45943;53.148;8.204;2023-05-24T10:14:32;102347.28;;;17.68;100.00
49216;BME280;45943;53.148;8.204;2023-05-24T10:17:02;102352.22;;;17.74;100.00
49216;BME280;45943;53.148;8.204;2023-05-24T10:19:30;102351.94;;;17.77;100.00
49216;BME280;45943;53.148;8.204;2023-05-24T10:21:57;102362.94;;;17.76;100.00
49216;BME280;45943;53.148;8.204;2023-05-24T10:24:25;102359.78;;;17.71;100.00
49216;BME280;45943;53.148;8.204;2023-05-24T10:26:57;102362.22;;;17.74;100.00
49216;BME280;45943;53.148;8.204;2023-05-24T10:32:42;102360.66;;;18.02;100.00
49216;BME280;45943;53.148;8.204;2023-05-24T10:35:12;102368.91;;;18.21;100.00
49216;BME280;45943;53.148;8.204;2023-05-24T10:37:39;102370.47;;;18.24;99.73
49216;BME280;45943;53.148;8.204;2023-05-24T10:40:11;102367.91;;;18.22;100.00
49216;BME280;45943;53.148;8.204;2023-05-24T10:42:45;102369.19;;;18.28;100.00
49216;BME280;45943;53.148;8.204;2023-05-24T10:45:28;102364.38;;;18.31;100.00
49216;BME280;45943;53.148;8.204;2023-05-24T10:48:01;102366.09;;;18.32;98.09
49216;BME280;45943;53.148;8.204;2023-05-24T10:50:33;102364.25;;;18.33;100.00
49216;BME280;45943;53.148;8.204;2023-05-24T10:55:50;102360.28;;;18.47;100.00
49216;BME280;45943;53.148;8.204;2023-05-24T10:58:17;102357.19;;;18.61;100.00
49216;BME280;45943;53.148;8.204;2023-05-24T11:00:43;102357.97;;;18.73;99.78
49216;BME280;45943;53.148;8.204;2023-05-24T11:03:10;102360.97;;;18.70;95.40
49216;BME280;45943;53.148;8.204;2023-05-24T11:08:23;102362.34;;;18.64;98.65
49216;BME280;45943;53.148;8.204;2023-05-24T11:11:02;102357.63;;;18.66;95.98
49216;BME280;45943;53.148;8.204;2023-05-24T11:13:31;102356.47;;;18.59;100.00
49216;BME280;45943;53.148;8.204;2023-05-24T11:15:58;102358.16;;;18.50;96.44
49216;BME280;45943;53.148;8.204;2023-05-24T11:18:24;102359.84;;;18.42;98.80
49216;BME280;45943;53.148;8.204;2023-05-24T11:20:50;102361.66;;;18.31;99.21
49216;BME280;45943;53.148;8.204;2023-05-24T11:23:17;102363.25;;;18.34;100.00
49216;BME280;45943;53.148;8.204;2023-05-24T11:25:45;102361.22;;;18.36;95.81
49216;BME280;45943;53.148;8.204;2023-05-24T11:28:11;102364.81;;;18.37;93.26
49216;BME280;45943;53.148;8.204;2023-05-24T11:30:38;102365.84;;;18.45;95.07
49216;BME280;45943;53.148;8.204;2023-05-24T11:33:12;102369.84;;;18.72;89.70
49216;BME280;45943;53.148;8.204;2023-05-24T11:35:45;102363.00;;;19.16;87.42
49216;BME280;45943;53.148;8.204;2023-05-24T11:38:12;102364.44;;;19.49;86.06
49216;BME280;45943;53.148;8.204;2023-05-24T11:40:46;102358.25;;;19.76;79.84
49216;BME280;45943;53.148;8.204;2023-05-24T11:43:15;102357.81;;;19.90;80.04
49216;BME280;45943;53.148;8.204;2023-05-24T11:45:45;102360.00;;;19.77;76.27
49216;BME280;45943;53.148;8.204;2023-05-24T11:48:14;102356.56;;;19.56;74.84
49216;BME280;45943;53.148;8.204;2023-05-24T11:50:41;102359.88;;;19.40;77.81
49216;BME280;45943;53.148;8.204;2023-05-24T11:53:11;102362.31;;;19.24;76.12
49216;BME280;45943;53.148;8.204;2023-05-24T11:55:39;102362.75;;;19.09;80.87
49216;BME280;45943;53.148;8.204;2023-05-24T11:58:10;102367.44;;;19.07;84.66
49216;BME280;45943;53.148;8.204;2023-05-24T12:00:44;102365.16;;;19.12;79.86
49216;BME280;45943;53.148;8.204;2023-05-24T12:03:09;102370.91;;;19.09;82.49
49216;BME280;45943;53.148;8.204;2023-05-24T12:05:36;102368.31;;;19.37;83.75
49216;BME280;45943;53.148;8.204;2023-05-24T12:08:08;102360.28;;;19.55;80.03
49216;BME280;45943;53.148;8.204;2023-05-24T12:10:42;102373.47;;;19.49;77.70
49216;BME280;45943;53.148;8.204;2023-05-24T12:13:19;102371.78;;;19.29;75.52
49216;BME280;45943;53.148;8.204;2023-05-24T12:15:53;102361.75;;;19.20;77.86
49216;BME280;45943;53.148;8.204;2023-05-24T12:18:21;102370.31;;;19.25;79.29
49216;BME280;45943;53.148;8.204;2023-05-24T12:20:48;102374.34;;;19.31;77.19
49216;BME280;45943;53.148;8.204;2023-05-24T12:23:14;102382.50;;;19.21;76.39
49216;BME280;45943;53.148;8.204;2023-05-24T12:25:41;102382.34;;;19.13;76.71
49216;BME280;45943;53.148;8.204;2023-05-24T12:28:08;102387.47;;;18.97;80.22
49216;BME280;45943;53.148;8.204;2023-05-24T12:30:36;102388.47;;;18.96;83.64
49216;BME280;45943;53.148;8.204;2023-05-24T12:33:02;102381.06;;;18.98;81.61
49216;BME280;45943;53.148;8.204;2023-05-24T12:35:28;102387.06;;;19.01;78.57
49216;BME280;45943;53.148;8.204;2023-05-24T12:37:58;102383.34;;;19.02;83.03
49216;BME280;45943;53.148;8.204;2023-05-24T12:40:24;102390.63;;;19.02;82.58
49216;BME280;45943;53.148;8.204;2023-05-24T12:42:54;102379.91;;;19.00;83.79
49216;BME280;45943;53.148;8.204;2023-05-24T12:45:25;102389.44;;;18.85;81.05
49216;BME280;45943;53.148;8.204;2023-05-24T12:50:23;102395.03;;;18.83;80.20
49216;BME280;45943;53.148;8.204;2023-05-24T12:52:50;102392.78;;;18.88;82.11
49216;BME280;45943;53.148;8.204;2023-05-24T12:55:23;102397.78;;;18.93;81.81
49216;BME280;45943;53.148;8.204;2023-05-24T12:57:53;102400.94;;;18.88;81.74
49216;BME280;45943;53.148;8.204;2023-05-24T13:00:25;102400.91;;;18.79;83.15
49216;BME280;45943;53.148;8.204;2023-05-24T13:02:52;102385.28;;;18.71;82.17
49216;BME280;45943;53.148;8.204;2023-05-24T13:05:24;102395.16;;;18.72;84.13
49216;BME280;45943;53.148;8.204;2023-05-24T13:07:52;102390.88;;;18.70;83.39
49216;BME280;45943;53.148;8.204;2023-05-24T13:10:19;102394.28;;;18.72;86.70
49216;BME280;45943;53.148;8.204;2023-05-24T13:12:45;102394.44;;;18.70;87.76
49216;BME280;45943;53.148;8.204;2023-05-24T13:15:11;102398.00;;;18.71;88.48